Time;durP1;ratioP1;P1;durP2;ratioP2;P2;SDS_P1;SDS_P2;PMS_P1;PMS_P2;Temp;Humidity;BMP_temperature;BMP_pressure;BME280_temperature;BME280_humidity;BME280_pressure;Samples;Min_cycle;Max_cycle;Signal;HPM_P1;HPM_P2
2021/04/19 00:01:13;;;;;;;10.85;9.75;;;;;;;;;;4991663;28;20277;-84
2021/04/19 00:03:39;;;;;;;12.00;10.00;;;;;;;;;;4996252;28;20219;-85
2021/04/19 00:06:05;;;;;;;11.30;10.10;;;;;;;;;;4999886;28;20203;-84
2021/04/19 00:08:31;;;;;;;11.07;9.95;;;;;;;;;;4986816;28;20183;-84
2021/04/19 00:10:57;;;;;;;11.05;9.93;;;;;;;;;;4994346;28;20181;-83
2021/04/19 00:13:23;;;;;;;12.50;9.98;;;;;;;;;;4987157;28;20187;-84
2021/04/19 00:15:49;;;;;;;11.60;9.85;;;;;;;;;;4999633;28;20184;-84
2021/04/19 00:18:15;;;;;;;10.07;9.18;;;;;;;;;;5003488;28;20646;-84
2021/04/19 00:20:41;;;;;;;14.32;10.85;;;;;;;;;;4988883;28;20187;-84
2021/04/19 00:23:07;;;;;;;12.73;9.77;;;;;;;;;;4988257;28;20176;-85
2021/04/19 00:25:33;;;;;;;11.55;9.90;;;;;;;;;;4988228;28;20214;-85
2021/04/19 00:27:59;;;;;;;12.68;9.88;;;;;;;;;;4988529;28;20184;-85
2021/04/19 00:30:26;;;;;;;12.40;10.27;;;;;;;;;;4988579;28;20218;-84
2021/04/19 00:32:52;;;;;;;11.35;9.90;;;;;;;;;;5000362;28;20469;-84
2021/04/19 00:35:18;;;;;;;10.73;9.65;;;;;;;;;;4986154;28;20187;-84
2021/04/19 00:37:44;;;;;;;11.63;10.27;;;;;;;;;;4988535;28;20199;-84
2021/04/19 00:40:12;;;;;;;11.02;10.02;;;;;;;;;;4998587;28;20198;-84
2021/04/19 00:42:38;;;;;;;11.15;9.38;;;;;;;;;;4988805;28;20211;-84
2021/04/19 00:45:05;;;;;;;13.05;9.63;;;;;;;;;;4989412;28;20208;-83
2021/04/19 00:47:31;;;;;;;14.73;9.38;;;;;;;;;;4987158;28;20187;-84
2021/04/19 00:49:58;;;;;;;15.00;10.70;;;;;;;;;;4987845;28;20243;-83
2021/04/19 00:52:24;;;;;;;10.38;9.35;;;;;;;;;;4998687;28;20188;-85
2021/04/19 00:54:50;;;;;;;10.15;9.15;;;;;;;;;;4987836;28;20188;-84
2021/04/19 00:57:16;;;;;;;10.30;8.57;;;;;;;;;;4988397;28;20196;-84
2021/04/19 00:59:42;;;;;;;9.85;8.77;;;;;;;;;;4988245;28;20211;-84
2021/04/19 01:02:09;;;;;;;9.98;9.05;;;;;;;;;;4987872;28;20176;-84
2021/04/19 01:04:35;;;;;;;10.32;9.20;;;;;;;;;;4998966;28;20231;-84
2021/04/19 01:07:01;;;;;;;10.70;9.60;;;;;;;;;;4988568;28;20187;-83
2021/04/19 01:09:27;;;;;;;12.00;9.40;;;;;;;;;;4982124;28;20195;-84
2021/04/19 01:11:53;;;;;;;9.10;8.20;;;;;;;;;;4987431;28;20206;-84
2021/04/19 01:14:19;;;;;;;13.10;10.07;;;;;;;;;;4985489;28;20176;-82
2021/04/19 01:16:45;;;;;;;11.50;9.88;;;;;;;;;;4987342;28;20257;-84
2021/04/19 01:19:11;;;;;;;9.88;8.43;;;;;;;;;;4987772;28;20172;-84
2021/04/19 01:21:37;;;;;;;15.02;9.30;;;;;;;;;;4986538;28;20194;-83
2021/04/19 01:24:03;;;;;;;12.30;9.05;;;;;;;;;;4987232;28;20180;-84
2021/04/19 01:26:29;;;;;;;11.02;9.55;;;;;;;;;;4987201;28;20234;-84
2021/04/19 01:28:55;;;;;;;10.52;9.43;;;;;;;;;;4983046;28;20180;-84
2021/04/19 01:31:22;;;;;;;10.20;8.93;;;;;;;;;;4978727;28;20196;-84
2021/04/19 01:33:47;;;;;;;12.80;9.40;;;;;;;;;;4982651;28;20180;-84
2021/04/19 01:36:14;;;;;;;12.80;9.15;;;;;;;;;;4985065;28;20665;-83
2021/04/19 01:38:40;;;;;;;12.02;9.75;;;;;;;;;;4987148;28;20183;-84
2021/04/19 01:41:06;;;;;;;12.00;9.20;;;;;;;;;;5008479;28;20246;-84
2021/04/19 01:43:32;;;;;;;9.77;8.35;;;;;;;;;;4982485;28;20199;-84
2021/04/19 01:45:58;;;;;;;10.40;8.10;;;;;;;;;;4986642;28;20232;-84
2021/04/19 01:48:25;;;;;;;9.52;8.48;;;;;;;;;;4985729;28;20258;-84
2021/04/19 01:50:51;;;;;;;11.35;9.07;;;;;;;;;;5002077;28;20203;-83
2021/04/19 01:53:18;;;;;;;9.15;8.25;;;;;;;;;;4986086;28;20187;-84
2021/04/19 01:55:44;;;;;;;11.70;8.50;;;;;;;;;;4996905;28;20172;-83
2021/04/19 01:58:11;;;;;;;14.77;9.30;;;;;;;;;;4986597;28;20206;-84
2021/04/19 02:00:38;;;;;;;10.68;8.70;;;;;;;;;;4987789;28;20541;-85
2021/04/19 02:03:09;;;;;;;11.95;9.32;;;;;;;;;;5001915;28;20290;-84
2021/04/19 02:05:38;;;;;;;10.07;9.07;;;;;;;;;;4984768;28;20216;-84
2021/04/19 02:08:10;;;;;;;9.40;8.45;;;;;;;;;;4986755;28;20613;-84
2021/04/19 02:10:56;;;;;;;11.35;9.60;;;;;;;;;;4994054;28;20183;-83
2021/04/19 02:13:31;;;;;;;8.77;7.88;;;;;;;;;;4988251;28;20214;-84
2021/04/19 02:16:02;;;;;;;9.00;7.78;;;;;;;;;;4987135;28;20184;-83
2021/04/19 02:18:28;;;;;;;8.88;8.00;;;;;;;;;;4995575;28;20187;-84
2021/04/19 02:20:57;;;;;;;11.20;9.17;;;;;;;;;;4986317;28;20192;-84
2021/04/19 02:23:32;;;;;;;10.00;8.85;;;;;;;;;;5002037;28;20463;-83
2021/04/19 02:25:59;;;;;;;10.52;9.05;;;;;;;;;;4984650;28;20270;-84
2021/04/19 02:28:28;;;;;;;18.08;9.02;;;;;;;;;;4986576;28;20207;-84
2021/04/19 02:30:57;;;;;;;12.15;8.50;;;;;;;;;;4986358;28;20191;-83
2021/04/19 02:33:23;;;;;;;11.05;8.68;;;;;;;;;;4986263;28;20176;-84
2021/04/19 02:35:50;;;;;;;11.43;9.32;;;;;;;;;;4986349;28;20195;-83
2021/04/19 02:38:18;;;;;;;10.80;9.00;;;;;;;;;;4985585;28;20367;-84
2021/04/19 02:40:45;;;;;;;10.80;9.07;;;;;;;;;;4987054;28;20708;-84
2021/04/19 02:43:11;;;;;;;13.90;10.13;;;;;;;;;;4986585;28;20184;-84
2021/04/19 02:45:38;;;;;;;10.75;9.00;;;;;;;;;;4986013;28;20203;-84
2021/04/19 02:48:04;;;;;;;10.13;8.68;;;;;;;;;;5000549;28;20638;-83
2021/04/19 02:50:31;;;;;;;11.30;9.82;;;;;;;;;;4985418;28;20268;-83
2021/04/19 02:52:58;;;;;;;12.38;9.75;;;;;;;;;;4986136;28;20186;-84
2021/04/19 02:55:26;;;;;;;12.98;10.73;;;;;;;;;;4985597;28;20191;-84
2021/04/19 02:57:54;;;;;;;9.85;8.85;;;;;;;;;;4986344;28;20215;-83
2021/04/19 03:00:24;;;;;;;10.00;8.98;;;;;;;;;;4988216;28;20240;-84
2021/04/19 03:02:51;;;;;;;10.55;9.10;;;;;;;;;;4986130;28;20207;-84
2021/04/19 03:05:18;;;;;;;9.95;8.95;;;;;;;;;;4984881;28;20212;-84
2021/04/19 03:07:47;;;;;;;11.45;9.02;;;;;;;;;;4986238;28;20172;-83
2021/04/19 03:10:16;;;;;;;12.95;9.30;;;;;;;;;;4984995;28;20195;-83
2021/04/19 03:12:44;;;;;;;13.60;9.15;;;;;;;;;;4997156;28;20183;-83
2021/04/19 03:15:14;;;;;;;13.32;9.07;;;;;;;;;;4985854;28;20184;-83
2021/04/19 03:17:40;;;;;;;12.95;9.05;;;;;;;;;;4995788;28;20183;-84
2021/04/19 03:20:08;;;;;;;10.73;8.55;;;;;;;;;;4985966;28;20524;-83
2021/04/19 03:22:39;;;;;;;9.57;7.95;;;;;;;;;;4982035;28;20242;-83
2021/04/19 03:25:06;;;;;;;9.73;8.75;;;;;;;;;;4985188;28;20211;-83
2021/04/19 03:27:33;;;;;;;12.40;9.30;;;;;;;;;;4998404;28;20187;-83
2021/04/19 03:29:59;;;;;;;9.32;8.30;;;;;;;;;;5000539;28;20180;-83
2021/04/19 03:32:28;;;;;;;12.65;8.60;;;;;;;;;;4995670;28;20179;-83
2021/04/19 03:34:54;;;;;;;10.48;9.38;;;;;;;;;;4985219;28;20183;-84
2021/04/19 03:37:23;;;;;;;15.70;8.40;;;;;;;;;;4984886;28;20278;-83
2021/04/19 03:39:54;;;;;;;11.70;9.00;;;;;;;;;;4980248;28;20187;-83
2021/04/19 03:42:21;;;;;;;12.20;9.25;;;;;;;;;;4985479;28;20188;-83
2021/04/19 03:44:48;;;;;;;12.38;11.15;;;;;;;;;;5000673;28;20227;-82
2021/04/19 03:47:14;;;;;;;11.23;9.93;;;;;;;;;;4983289;28;20179;-83
2021/04/19 03:49:44;;;;;;;10.23;9.18;;;;;;;;;;4985878;28;20172;-83
2021/04/19 03:52:11;;;;;;;10.20;8.77;;;;;;;;;;4985766;28;20199;-83
2021/04/19 03:54:40;;;;;;;10.63;8.63;;;;;;;;;;4985658;28;20194;-83
2021/04/19 03:57:07;;;;;;;10.23;8.50;;;;;;;;;;5001519;28;20191;-82
2021/04/19 03:59:36;;;;;;;11.60;8.73;;;;;;;;;;4986076;28;20184;-83
2021/04/19 04:02:03;;;;;;;10.82;9.57;;;;;;;;;;4983456;28;20559;-83
2021/04/19 04:04:29;;;;;;;10.85;9.00;;;;;;;;;;4985551;28;20278;-83
2021/04/19 04:06:57;;;;;;;12.50;9.85;;;;;;;;;;4985349;28;20679;-83
2021/04/19 04:09:23;;;;;;;9.95;8.93;;;;;;;;;;4980208;28;20179;-84
2021/04/19 04:11:49;;;;;;;12.30;9.13;;;;;;;;;;5011324;28;20188;-83
2021/04/19 04:14:15;;;;;;;9.55;8.55;;;;;;;;;;4984854;28;20184;-83
2021/04/19 04:16:44;;;;;;;12.55;8.55;;;;;;;;;;4982273;28;20190;-84
2021/04/19 04:19:11;;;;;;;9.40;8.15;;;;;;;;;;5001742;28;20218;-84
2021/04/19 04:21:37;;;;;;;10.25;8.63;;;;;;;;;;4986247;28;20184;-82
2021/04/19 04:24:03;;;;;;;9.85;7.43;;;;;;;;;;5004214;28;20190;-83
2021/04/19 04:26:30;;;;;;;10.30;8.25;;;;;;;;;;4987194;28;20247;-83
2021/04/19 04:28:56;;;;;;;12.05;8.85;;;;;;;;;;4987430;28;20175;-83
2021/04/19 04:31:22;;;;;;;9.88;8.68;;;;;;;;;;4988439;28;20207;-83
2021/04/19 04:33:48;;;;;;;13.50;9.70;;;;;;;;;;4999884;28;20184;-84
2021/04/19 04:36:15;;;;;;;10.45;9.35;;;;;;;;;;4987974;28;20453;-83
2021/04/19 04:38:41;;;;;;;10.73;9.10;;;;;;;;;;4988999;28;20179;-83
2021/04/19 04:41:07;;;;;;;15.98;9.90;;;;;;;;;;4987339;28;20179;-83
2021/04/19 04:43:36;;;;;;;13.73;8.40;;;;;;;;;;4988621;28;20656;-83
2021/04/19 04:46:06;;;;;;;11.18;8.90;;;;;;;;;;4999285;28;20214;-83
2021/04/19 04:48:37;;;;;;;10.38;9.18;;;;;;;;;;4999548;28;20465;-83
2021/04/19 04:51:12;;;;;;;9.80;8.80;;;;;;;;;;4988547;28;20184;-83
2021/04/19 04:53:40;;;;;;;10.65;8.52;;;;;;;;;;5003575;28;20189;-83
2021/04/19 04:56:06;;;;;;;9.93;9.00;;;;;;;;;;4988083;28;20238;-83
2021/04/19 04:58:33;;;;;;;12.05;9.30;;;;;;;;;;4988186;28;20290;-83
2021/04/19 05:00:59;;;;;;;10.10;8.35;;;;;;;;;;4988561;28;20240;-83
2021/04/19 05:03:26;;;;;;;9.20;8.20;;;;;;;;;;4997266;28;20236;-84
2021/04/19 05:05:52;;;;;;;9.18;8.20;;;;;;;;;;4988592;28;20210;-83
2021/04/19 05:08:19;;;;;;;13.65;9.07;;;;;;;;;;4987680;28;20176;-84
2021/04/19 05:10:45;;;;;;;10.20;8.57;;;;;;;;;;5002653;28;20191;-84
2021/04/19 05:13:13;;;;;;;10.52;9.38;;;;;;;;;;4998975;28;20179;-84
2021/04/19 05:15:40;;;;;;;13.35;10.77;;;;;;;;;;4987968;28;20190;-84
2021/04/19 05:18:06;;;;;;;12.70;9.63;;;;;;;;;;4998376;28;20275;-84
2021/04/19 05:20:32;;;;;;;11.50;9.80;;;;;;;;;;5002326;28;20195;-84
2021/04/19 05:22:58;;;;;;;11.27;9.10;;;;;;;;;;4998361;28;20207;-84
2021/04/19 05:25:24;;;;;;;12.88;8.70;;;;;;;;;;5002237;28;20207;-85
2021/04/19 05:27:51;;;;;;;15.38;9.60;;;;;;;;;;4987373;28;20184;-85
2021/04/19 05:30:17;;;;;;;13.32;10.07;;;;;;;;;;5002774;28;20188;-84
2021/04/19 05:32:43;;;;;;;11.23;10.13;;;;;;;;;;4987761;28;20233;-86
2021/04/19 05:35:10;;;;;;;12.20;8.80;;;;;;;;;;4985966;28;20595;-85
2021/04/19 05:37:36;;;;;;;13.18;9.05;;;;;;;;;;4981059;28;20334;-84
2021/04/19 05:40:02;;;;;;;12.88;9.15;;;;;;;;;;4987622;28;20688;-84
2021/04/19 05:42:28;;;;;;;15.43;9.43;;;;;;;;;;4982963;28;20229;-85
2021/04/19 05:44:54;;;;;;;19.75;10.07;;;;;;;;;;4985365;28;20251;-85
2021/04/19 05:47:20;;;;;;;12.20;10.02;;;;;;;;;;4984241;28;20180;-85
2021/04/19 05:49:46;;;;;;;14.20;9.85;;;;;;;;;;4984252;28;20168;-84
2021/04/19 05:52:13;;;;;;;13.07;10.13;;;;;;;;;;4988264;28;20271;-84
2021/04/19 05:54:40;;;;;;;13.77;11.70;;;;;;;;;;4985631;28;20545;-83
2021/04/19 05:57:09;;;;;;;11.63;9.82;;;;;;;;;;4982108;28;20184;-83
2021/04/19 05:59:54;;;;;;;12.45;10.38;;;;;;;;;;4986332;28;20266;-83
2021/04/19 06:02:40;;;;;;;17.08;10.85;;;;;;;;;;4983216;28;20560;-83
2021/04/19 06:05:08;;;;;;;12.20;9.57;;;;;;;;;;4985878;28;20287;-83
2021/04/19 06:07:43;;;;;;;12.50;10.32;;;;;;;;;;4985474;28;20195;-82
2021/04/19 06:10:20;;;;;;;13.05;10.35;;;;;;;;;;4985889;28;20188;-83
2021/04/19 06:12:48;;;;;;;12.02;10.35;;;;;;;;;;4985865;28;20184;-84
2021/04/19 06:15:15;;;;;;;12.35;10.32;;;;;;;;;;4984419;28;20188;-83
2021/04/19 06:17:46;;;;;;;14.27;10.68;;;;;;;;;;4993229;28;20273;-83
2021/04/19 06:20:16;;;;;;;16.90;11.80;;;;;;;;;;4991442;28;20225;-82
2021/04/19 06:22:43;;;;;;;13.07;11.10;;;;;;;;;;4981628;28;20190;-83
2021/04/19 06:25:12;;;;;;;16.75;11.93;;;;;;;;;;5003074;28;20207;-83
2021/04/19 06:27:39;;;;;;;15.43;11.27;;;;;;;;;;4996049;28;20203;-83
2021/04/19 06:30:12;;;;;;;13.90;12.25;;;;;;;;;;4986188;28;20176;-84
2021/04/19 06:32:38;;;;;;;17.20;11.57;;;;;;;;;;4989000;28;20176;-83
2021/04/19 06:35:05;;;;;;;16.70;12.27;;;;;;;;;;4990662;28;20183;-83
2021/04/19 06:37:31;;;;;;;17.20;13.07;;;;;;;;;;4985985;28;20187;-84
2021/04/19 06:39:57;;;;;;;14.73;12.00;;;;;;;;;;4997891;28;20279;-83
2021/04/19 06:42:23;;;;;;;18.15;12.32;;;;;;;;;;4986482;28;20553;-84
2021/04/19 06:44:49;;;;;;;16.15;12.68;;;;;;;;;;4985386;28;20208;-83
2021/04/19 06:47:15;;;;;;;26.30;12.18;;;;;;;;;;4983396;28;20179;-82
2021/04/19 06:49:42;;;;;;;15.48;12.30;;;;;;;;;;4982723;28;20227;-83
2021/04/19 06:52:08;;;;;;;15.05;10.93;;;;;;;;;;4994632;28;20252;-83
2021/04/19 06:54:34;;;;;;;15.63;11.43;;;;;;;;;;4984924;28;20191;-83
2021/04/19 06:57:01;;;;;;;17.67;12.95;;;;;;;;;;4986225;28;20282;-86
2021/04/19 06:59:27;;;;;;;20.88;11.40;;;;;;;;;;4984381;28;20191;-85
2021/04/19 07:01:55;;;;;;;18.85;12.70;;;;;;;;;;4983707;28;20555;-85
2021/04/19 07:04:24;;;;;;;18.00;12.25;;;;;;;;;;4985058;28;20226;-85
2021/04/19 07:06:50;;;;;;;12.70;11.00;;;;;;;;;;4984118;28;20207;-85
2021/04/19 07:09:31;;;;;;;12.40;10.95;;;;;;;;;;4980938;28;20187;-85
2021/04/19 07:12:03;;;;;;;22.95;12.63;;;;;;;;;;4981905;28;20729;-86
2021/04/19 07:14:30;;;;;;;16.25;11.50;;;;;;;;;;4981774;28;20179;-83
2021/04/19 07:16:56;;;;;;;15.07;12.43;;;;;;;;;;4981555;28;20187;-84
2021/04/19 07:19:23;;;;;;;13.32;10.43;;;;;;;;;;4980640;28;20693;-84
2021/04/19 07:21:49;;;;;;;14.90;12.07;;;;;;;;;;4997086;28;20184;-84
2021/04/19 07:24:15;;;;;;;15.75;11.73;;;;;;;;;;4984923;28;20274;-84
2021/04/19 07:26:42;;;;;;;15.65;11.45;;;;;;;;;;4983506;28;20203;-85
2021/04/19 07:29:08;;;;;;;17.05;11.10;;;;;;;;;;4981245;28;20176;-85
2021/04/19 07:31:46;;;;;;;14.70;11.38;;;;;;;;;;4984780;28;20191;-84
2021/04/19 07:34:17;;;;;;;17.05;12.93;;;;;;;;;;4977147;28;20198;-86
2021/04/19 07:36:48;;;;;;;16.20;12.70;;;;;;;;;;4977875;28;20255;-86
2021/04/19 07:39:19;;;;;;;15.90;12.07;;;;;;;;;;4994289;28;20494;-86
2021/04/19 07:41:54;;;;;;;17.50;14.20;;;;;;;;;;4983226;28;20210;-86
2021/04/19 07:44:33;;;;;;;16.05;12.50;;;;;;;;;;4982649;28;20175;-86
2021/04/19 07:47:18;;;;;;;19.60;13.85;;;;;;;;;;4979472;28;20226;-84
2021/04/19 07:49:57;;;;;;;17.33;13.63;;;;;;;;;;4997210;28;20184;-85
2021/04/19 07:52:23;;;;;;;22.52;13.25;;;;;;;;;;4981773;28;20188;-86
2021/04/19 07:55:22;;;;;;;18.63;13.98;;;;;;;;;;4982449;28;20183;-83
2021/04/19 07:57:54;;;;;;;20.95;15.43;;;;;;;;;;4969587;28;20207;-83
2021/04/19 08:00:29;;;;;;;18.02;13.95;;;;;;;;;;4986939;28;20239;-82
2021/04/19 08:03:00;;;;;;;17.83;14.05;;;;;;;;;;4988110;28;20309;-84
2021/04/19 08:05:30;;;;;;;17.17;13.90;;;;;;;;;;4986320;28;20206;-83
2021/04/19 08:08:25;;;;;;;19.30;14.60;;;;;;;;;;4985614;28;20181;-83
2021/04/19 08:11:05;;;;;;;17.90;13.23;;;;;;;;;;4981503;28;20272;-82
2021/04/19 08:13:31;;;;;;;19.58;13.68;;;;;;;;;;4986846;28;20179;-83
2021/04/19 08:16:14;;;;;;;21.23;14.57;;;;;;;;;;4983421;28;20187;-83
2021/04/19 08:18:46;;;;;;;20.52;14.10;;;;;;;;;;5004269;28;20191;-83
2021/04/19 08:21:24;;;;;;;18.40;15.20;;;;;;;;;;4982480;28;20215;-83
2021/04/19 08:24:16;;;;;;;20.65;15.02;;;;;;;;;;4982746;28;20255;-83
2021/04/19 08:27:13;;;;;;;21.35;15.02;;;;;;;;;;4987257;28;20239;-83
2021/04/19 08:29:45;;;;;;;18.65;14.70;;;;;;;;;;4971057;28;20292;-82
2021/04/19 08:32:31;;;;;;;20.30;14.93;;;;;;;;;;4982616;28;20606;-85
2021/04/19 08:35:03;;;;;;;18.95;14.10;;;;;;;;;;4987001;28;20180;-83
2021/04/19 08:37:30;;;;;;;18.13;14.15;;;;;;;;;;4980660;28;20216;-82
2021/04/19 08:39:58;;;;;;;19.42;14.90;;;;;;;;;;4986297;28;20190;-86
2021/04/19 08:42:25;;;;;;;20.70;14.88;;;;;;;;;;4998696;28;20202;-85
2021/04/19 08:44:55;;;;;;;22.40;15.05;;;;;;;;;;4987450;28;20237;-87
2021/04/19 08:47:26;;;;;;;21.42;15.75;;;;;;;;;;4986663;28;20772;-86
2021/04/19 08:49:53;;;;;;;19.17;14.18;;;;;;;;;;4982543;28;20242;-86
2021/04/19 08:52:19;;;;;;;18.02;14.80;;;;;;;;;;4998161;28;20184;-85
2021/04/19 08:54:46;;;;;;;16.67;14.18;;;;;;;;;;4997748;28;20246;-86
2021/04/19 08:57:12;;;;;;;20.33;13.80;;;;;;;;;;4983426;28;20190;-88
2021/04/19 08:59:39;;;;;;;22.38;16.30;;;;;;;;;;4983634;28;20191;-87
2021/04/19 09:02:05;;;;;;;19.00;14.95;;;;;;;;;;4985048;28;20200;-89
2021/04/19 09:04:31;;;;;;;20.80;15.77;;;;;;;;;;4993898;28;20220;-87
2021/04/19 09:07:02;;;;;;;17.25;13.45;;;;;;;;;;4976995;28;20281;-84
2021/04/19 09:09:28;;;;;;;25.90;14.68;;;;;;;;;;4995628;28;20242;-84
2021/04/19 09:11:54;;;;;;;19.10;15.97;;;;;;;;;;4982786;28;20196;-87
2021/04/19 09:14:33;;;;;;;19.30;15.70;;;;;;;;;;4982334;28;20433;-88
2021/04/19 09:16:59;;;;;;;27.08;18.25;;;;;;;;;;4980320;28;20189;-87
2021/04/19 09:19:26;;;;;;;24.35;17.17;;;;;;;;;;4982815;28;20203;-87
2021/04/19 09:21:55;;;;;;;22.73;16.42;;;;;;;;;;4997679;28;20226;-85
2021/04/19 09:24:23;;;;;;;20.27;16.15;;;;;;;;;;4982893;28;20196;-87
2021/04/19 09:26:49;;;;;;;22.77;17.45;;;;;;;;;;4982306;28;20187;-86
2021/04/19 09:29:27;;;;;;;21.05;15.50;;;;;;;;;;4984061;28;20176;-86
2021/04/19 09:32:04;;;;;;;20.67;16.40;;;;;;;;;;4985456;28;20187;-87
2021/04/19 09:34:37;;;;;;;20.13;14.93;;;;;;;;;;4982429;28;20195;-87
2021/04/19 09:37:04;;;;;;;21.73;15.95;;;;;;;;;;4982091;28;20188;-86
2021/04/19 09:39:49;;;;;;;19.48;15.90;;;;;;;;;;4980666;28;20214;-88
2021/04/19 09:42:15;;;;;;;17.85;15.02;;;;;;;;;;4974437;28;20184;-84
2021/04/19 09:44:51;;;;;;;20.42;14.43;;;;;;;;;;4981837;28;20579;-87
2021/04/19 09:47:36;;;;;;;19.75;15.13;;;;;;;;;;4981577;28;20283;-86
2021/04/19 09:50:03;;;;;;;19.65;14.75;;;;;;;;;;4983270;28;20270;-85
2021/04/19 09:52:29;;;;;;;20.67;15.15;;;;;;;;;;4981643;28;20192;-87
2021/04/19 09:55:00;;;;;;;18.73;15.75;;;;;;;;;;4985285;28;20203;-88
2021/04/19 09:57:26;;;;;;;19.20;15.32;;;;;;;;;;4984238;28;20220;-86
2021/04/19 09:59:52;;;;;;;19.67;14.40;;;;;;;;;;4982640;28;20201;-86
2021/04/19 10:02:18;;;;;;;19.23;14.85;;;;;;;;;;4984953;28;20207;-85
2021/04/19 10:04:46;;;;;;;17.67;13.35;;;;;;;;;;4984235;28;20235;-86
2021/04/19 10:07:12;;;;;;;14.57;13.05;;;;;;;;;;4980660;28;20176;-86
2021/04/19 10:09:40;;;;;;;14.98;12.85;;;;;;;;;;4999808;28;20188;-86
2021/04/19 10:12:07;;;;;;;14.90;12.68;;;;;;;;;;4984267;28;20199;-88
2021/04/19 10:14:34;;;;;;;15.20;13.52;;;;;;;;;;4982873;28;20295;-87
2021/04/19 10:17:00;;;;;;;16.08;13.85;;;;;;;;;;4984278;28;20171;-82
2021/04/19 10:19:30;;;;;;;21.60;14.60;;;;;;;;;;4981882;28;20203;-83
2021/04/19 10:21:59;;;;;;;15.30;13.25;;;;;;;;;;4983829;28;20492;-82
2021/04/19 10:24:25;;;;;;;15.77;13.15;;;;;;;;;;4983794;28;20179;-82
2021/04/19 10:26:51;;;;;;;12.95;11.05;;;;;;;;;;4998664;28;20211;-83
2021/04/19 10:29:19;;;;;;;11.75;9.45;;;;;;;;;;4984490;28;20183;-84
2021/04/19 10:31:48;;;;;;;12.27;10.98;;;;;;;;;;4981026;28;20190;-81
2021/04/19 10:34:14;;;;;;;10.50;8.68;;;;;;;;;;4973621;28;20191;-81
2021/04/19 10:36:44;;;;;;;13.38;8.75;;;;;;;;;;4985393;28;20188;-81
2021/04/19 10:39:11;;;;;;;11.48;8.02;;;;;;;;;;4983310;28;20187;-84
2021/04/19 10:41:38;;;;;;;12.95;7.88;;;;;;;;;;4983404;28;20724;-83
2021/04/19 10:44:05;;;;;;;8.80;7.90;;;;;;;;;;4984377;28;20184;-82
2021/04/19 10:46:31;;;;;;;8.77;7.88;;;;;;;;;;4980787;28;20223;-80
2021/04/19 10:48:59;;;;;;;8.03;7.30;;;;;;;;;;4983317;28;20183;-82
2021/04/19 10:51:26;;;;;;;8.90;6.70;;;;;;;;;;4982635;28;20443;-82
2021/04/19 10:53:53;;;;;;;7.85;6.45;;;;;;;;;;4995265;28;20180;-83
2021/04/19 10:56:24;;;;;;;10.52;7.13;;;;;;;;;;4998524;28;20175;-84
2021/04/19 10:58:51;;;;;;;7.95;7.15;;;;;;;;;;4982842;28;20175;-83
2021/04/19 11:01:24;;;;;;;8.68;7.10;;;;;;;;;;4982913;28;20207;-82
2021/04/19 11:03:50;;;;;;;9.43;6.45;;;;;;;;;;4996186;28;20235;-81
2021/04/19 11:06:17;;;;;;;7.93;5.65;;;;;;;;;;4983701;28;20218;-82
2021/04/19 11:08:50;;;;;;;9.48;5.80;;;;;;;;;;4981728;28;20200;-82
2021/04/19 11:11:22;;;;;;;8.65;6.20;;;;;;;;;;4994478;28;20211;-81
2021/04/19 11:13:48;;;;;;;8.45;4.78;;;;;;;;;;4998376;28;20181;-82
2021/04/19 11:16:24;;;;;;;9.93;6.68;;;;;;;;;;4983868;28;20262;-82
2021/04/19 11:18:50;;;;;;;7.25;6.55;;;;;;;;;;4979236;28;20224;-82
2021/04/19 11:21:30;;;;;;;8.13;6.05;;;;;;;;;;4984525;28;20200;-82
2021/04/19 11:24:09;;;;;;;9.30;6.90;;;;;;;;;;4997374;28;20195;-81
2021/04/19 11:26:35;;;;;;;7.47;5.78;;;;;;;;;;4980099;28;20608;-82
2021/04/19 11:29:01;;;;;;;5.65;5.15;;;;;;;;;;4983211;28;20573;-83
2021/04/19 11:31:37;;;;;;;7.00;5.87;;;;;;;;;;4982117;28;20191;-83
2021/04/19 11:34:08;;;;;;;7.72;5.88;;;;;;;;;;4997931;28;20466;-82
2021/04/19 11:36:41;;;;;;;10.50;6.55;;;;;;;;;;4982958;28;20189;-83
2021/04/19 11:39:13;;;;;;;7.85;6.30;;;;;;;;;;4972081;28;20180;-85
2021/04/19 11:41:39;;;;;;;5.93;5.30;;;;;;;;;;4981921;28;20202;-83
2021/04/19 11:44:05;;;;;;;8.93;5.43;;;;;;;;;;4982139;28;20454;-81
2021/04/19 11:46:32;;;;;;;9.75;6.40;;;;;;;;;;4993612;28;20275;-82
2021/04/19 11:48:58;;;;;;;8.05;5.80;;;;;;;;;;4977106;28;20542;-82
2021/04/19 11:51:25;;;;;;;10.15;6.00;;;;;;;;;;4982598;28;20207;-81
2021/04/19 11:53:52;;;;;;;8.60;7.88;;;;;;;;;;4982603;28;20660;-81
2021/04/19 11:56:19;;;;;;;11.27;8.05;;;;;;;;;;4982591;28;20215;-83
2021/04/19 11:58:46;;;;;;;10.63;7.07;;;;;;;;;;4981053;28;20274;-81
2021/04/19 12:01:13;;;;;;;10.00;8.02;;;;;;;;;;4982442;28;20206;-81
2021/04/19 12:03:40;;;;;;;8.70;8.00;;;;;;;;;;4981961;28;20223;-81
2021/04/19 12:06:06;;;;;;;11.35;8.35;;;;;;;;;;4982570;28;20554;-82
2021/04/19 12:08:32;;;;;;;11.35;8.30;;;;;;;;;;4983272;28;20188;-84
2021/04/19 12:10:59;;;;;;;10.73;7.70;;;;;;;;;;4983643;28;20195;-82
2021/04/19 12:13:25;;;;;;;10.30;9.10;;;;;;;;;;4982484;28;20191;-80
2021/04/19 12:15:53;;;;;;;9.57;8.32;;;;;;;;;;4993178;28;20542;-82
2021/04/19 12:18:19;;;;;;;11.65;8.25;;;;;;;;;;4972396;28;20252;-82
2021/04/19 12:20:45;;;;;;;9.60;8.60;;;;;;;;;;4982851;28;20270;-82
2021/04/19 12:23:20;;;;;;;9.70;7.80;;;;;;;;;;4984714;28;20177;-82
2021/04/19 12:25:56;;;;;;;9.32;8.20;;;;;;;;;;4993871;28;20204;-81
2021/04/19 12:28:23;;;;;;;8.63;7.82;;;;;;;;;;4975485;28;20212;-80
2021/04/19 12:30:49;;;;;;;7.70;6.70;;;;;;;;;;4982249;28;20205;-81
2021/04/19 12:33:16;;;;;;;8.75;6.95;;;;;;;;;;4982384;28;20183;-78
2021/04/19 12:35:42;;;;;;;9.57;6.60;;;;;;;;;;4997266;28;20251;-79
2021/04/19 12:38:08;;;;;;;7.30;6.17;;;;;;;;;;4983746;28;20499;-81
2021/04/19 12:40:35;;;;;;;7.13;6.17;;;;;;;;;;4982359;28;20438;-79
2021/04/19 12:43:01;;;;;;;6.50;5.90;;;;;;;;;;4983508;28;20450;-80
2021/04/19 12:45:35;;;;;;;8.43;7.20;;;;;;;;;;5000660;28;20470;-79
2021/04/19 12:48:04;;;;;;;6.87;6.27;;;;;;;;;;4985944;28;20427;-80
2021/04/19 12:50:30;;;;;;;9.60;6.07;;;;;;;;;;4986143;28;20519;-80
2021/04/19 12:53:03;;;;;;;8.33;7.10;;;;;;;;;;4986178;28;20439;-79
2021/04/19 12:55:29;;;;;;;9.90;7.23;;;;;;;;;;4995855;28;20464;-76
2021/04/19 12:57:56;;;;;;;7.67;6.60;;;;;;;;;;4999243;28;20456;-77
2021/04/19 13:00:23;;;;;;;8.67;6.27;;;;;;;;;;4983521;28;20437;-79
2021/04/19 13:02:48;;;;;;;5.93;5.33;;;;;;;;;;4985815;28;20460;-76
2021/04/19 13:05:17;;;;;;;7.70;5.90;;;;;;;;;;4984768;28;20435;-78
2021/04/19 13:07:44;;;;;;;6.03;5.40;;;;;;;;;;4985213;28;20403;-78
2021/04/19 13:10:10;;;;;;;7.13;5.93;;;;;;;;;;4985875;28;20460;-78
2021/04/19 13:12:36;;;;;;;7.73;6.10;;;;;;;;;;4983696;28;20453;-77
2021/04/19 13:15:03;;;;;;;6.97;5.90;;;;;;;;;;4983049;28;20427;-79
2021/04/19 13:17:29;;;;;;;6.07;5.57;;;;;;;;;;4983899;28;20409;-79
2021/04/19 13:19:56;;;;;;;6.27;5.67;;;;;;;;;;4984848;28;20404;-79
2021/04/19 13:22:23;;;;;;;6.20;4.80;;;;;;;;;;4981115;28;20475;-79
2021/04/19 13:24:49;;;;;;;5.20;4.80;;;;;;;;;;4995025;28;20453;-79
2021/04/19 13:27:15;;;;;;;5.83;4.80;;;;;;;;;;4998769;28;20460;-78
2021/04/19 13:29:41;;;;;;;6.83;4.33;;;;;;;;;;4984076;28;20464;-78
2021/04/19 13:32:07;;;;;;;6.60;5.70;;;;;;;;;;4985138;28;20877;-77
2021/04/19 13:34:33;;;;;;;7.67;5.83;;;;;;;;;;4984727;28;20637;-78
2021/04/19 13:36:59;;;;;;;8.43;5.30;;;;;;;;;;4999184;28;20446;-75
2021/04/19 13:39:25;;;;;;;7.30;5.70;;;;;;;;;;4985553;28;20445;-78
2021/04/19 13:41:51;;;;;;;8.20;5.17;;;;;;;;;;4984191;28;20827;-77
2021/04/19 13:44:17;;;;;;;11.03;6.10;;;;;;;;;;4985276;28;20387;-78
2021/04/19 13:46:45;;;;;;;6.13;5.10;;;;;;;;;;4985782;28;20437;-76
2021/04/19 13:49:12;;;;;;;8.93;5.80;;;;;;;;;;4997949;28;20449;-78
2021/04/19 13:51:38;;;;;;;6.10;5.50;;;;;;;;;;4981070;28;20451;-79
2021/04/19 13:54:05;;;;;;;7.03;5.30;;;;;;;;;;4984418;28;20426;-77
2021/04/19 13:56:31;;;;;;;5.40;4.93;;;;;;;;;;4983313;28;20414;-77
2021/04/19 13:58:57;;;;;;;6.83;5.67;;;;;;;;;;4985005;28;20411;-76
2021/04/19 14:01:23;;;;;;;6.33;5.63;;;;;;;;;;4984253;28;20982;-78
2021/04/19 14:03:49;;;;;;;8.40;5.73;;;;;;;;;;4996889;28;20463;-79
2021/04/19 14:06:16;;;;;;;6.10;5.40;;;;;;;;;;4983653;28;20523;-78
2021/04/19 14:08:42;;;;;;;7.83;7.10;;;;;;;;;;4969263;28;20437;-78
2021/04/19 14:11:09;;;;;;;6.93;6.30;;;;;;;;;;4980447;28;20428;-78
2021/04/19 14:13:35;;;;;;;10.50;6.27;;;;;;;;;;4983334;28;20800;-77
2021/04/19 14:16:01;;;;;;;7.30;6.30;;;;;;;;;;4981344;28;20416;-80
2021/04/19 14:18:27;;;;;;;13.80;6.50;;;;;;;;;;4983867;28;20535;-78
2021/04/19 14:20:53;;;;;;;6.73;6.13;;;;;;;;;;4983981;28;20525;-78
2021/04/19 14:23:21;;;;;;;6.20;5.63;;;;;;;;;;4982212;28;21018;-79
2021/04/19 14:25:47;;;;;;;7.87;6.83;;;;;;;;;;4977632;28;20449;-78
2021/04/19 14:28:13;;;;;;;8.93;6.93;;;;;;;;;;4983609;28;20466;-80
2021/04/19 14:30:38;;;;;;;7.00;6.40;;;;;;;;;;4998556;28;20608;-80
2021/04/19 14:33:05;;;;;;;9.23;7.50;;;;;;;;;;4979510;28;20937;-79
2021/04/19 14:35:31;;;;;;;7.35;6.75;;;;;;;;;;4984065;28;20419;-81